Terminal Aerodrome Forecast
Issued by NWS Wilmington, OH

Current Version | Previous Version | Text Only | Print | Product List | Glossary Off
Versions: 1 2 3 4 5 6 7 8 9 10 11 12 13 14 15 16 17 18 19 20

000
FTUS41 KILN 280530
TAFDAY
TAF
KDAY 280530Z 2806/2906 33005KT P6SM -SHRA OVC040
      TEMPO 2806/2809 4SM -SHRA BR OVC011
     FM280900 34006KT 5SM BR VCSH OVC007
     FM281400 35008KT P6SM OVC011
     FM281600 36009KT P6SM OVC018
     FM290100 01008KT P6SM OVC025=

USA.gov is the U.S. government's official web portal to all federal, state and local government web resources and services.